createdAt,value
2023-06-02T00:01:37.541Z,101936.91
2023-06-02T00:04:04.890Z,101940.59
2023-06-02T00:06:34.438Z,101931.97
2023-06-02T00:09:05.190Z,101932.78
2023-06-02T00:11:35.661Z,101925.84
2023-06-02T00:14:04.852Z,101928.50
2023-06-02T00:16:43.032Z,101931.97
2023-06-02T00:19:13.430Z,101920.50
2023-06-02T00:21:41.967Z,101922.53
2023-06-02T00:24:09.080Z,101925.84
2023-06-02T00:26:36.148Z,101929.75
2023-06-02T00:29:03.521Z,101918.50
2023-06-02T00:31:30.825Z,101920.97
2023-06-02T00:33:59.364Z,101924.66
2023-06-02T00:36:26.394Z,101924.22
2023-06-02T00:38:53.388Z,101926.47
2023-06-02T00:41:20.565Z,101927.47
2023-06-02T00:43:47.590Z,101920.88
2023-06-02T00:46:14.565Z,101921.25
2023-06-02T00:48:41.642Z,101923.66
2023-06-02T00:51:10.974Z,101915.44
2023-06-02T00:53:38.988Z,101915.25
2023-06-02T00:56:07.047Z,101918.75
2023-06-02T00:58:38.332Z,101914.06
2023-06-02T01:01:09.477Z,101912.84
2023-06-02T01:03:38.137Z,101913.63
2023-06-02T01:06:08.784Z,101914.31
2023-06-02T01:08:40.177Z,101917.97
2023-06-02T01:11:08.315Z,101911.81
2023-06-02T01:13:36.409Z,101917.34
2023-06-02T01:16:03.747Z,101913.00
2023-06-02T01:18:36.347Z,101908.72
2023-06-02T01:21:06.530Z,101913.41
2023-06-02T01:23:36.626Z,101913.59
2023-06-02T01:26:10.097Z,101914.78
2023-06-02T01:28:37.600Z,101912.09
2023-06-02T01:31:14.649Z,101896.84
2023-06-02T01:33:48.194Z,101905.38
2023-06-02T01:36:18.266Z,101894.94
2023-06-02T01:38:49.554Z,101890.81
2023-06-02T01:41:21.302Z,101895.50
2023-06-02T01:43:49.834Z,101887.53
2023-06-02T01:46:17.656Z,101889.19
2023-06-02T01:48:44.673Z,101899.19
2023-06-02T01:51:11.626Z,101899.19
2023-06-02T01:53:38.571Z,101902.50
2023-06-02T01:56:06.676Z,101911.09
2023-06-02T01:58:35.249Z,101911.94
2023-06-02T02:01:02.275Z,101919.72
2023-06-02T02:03:30.606Z,101912.75
2023-06-02T02:05:57.950Z,101916.44
2023-06-02T02:08:24.987Z,101915.16
2023-06-02T02:10:52.123Z,101918.84
2023-06-02T02:13:19.076Z,101905.72
2023-06-02T02:15:47.421Z,101920.47
2023-06-02T02:18:16.620Z,101911.47
2023-06-02T02:20:43.569Z,101914.78
2023-06-02T02:23:10.544Z,101916.44
2023-06-02T02:25:37.478Z,101918.06
2023-06-02T02:28:04.564Z,101917.06
2023-06-02T02:30:31.594Z,101917.06
2023-06-02T02:33:03.135Z,101908.25
2023-06-02T02:35:30.095Z,101905.38
2023-06-02T02:37:57.049Z,101910.34
2023-06-02T02:40:24.225Z,101909.63
2023-06-02T02:42:51.144Z,101910.88
2023-06-02T02:45:18.240Z,101916.63
2023-06-02T02:47:45.573Z,101919.13
2023-06-02T02:50:13.810Z,101920.38
2023-06-02T02:52:40.715Z,101918.34
2023-06-02T02:55:08.525Z,101920.38
2023-06-02T02:57:35.425Z,101915.06
2023-06-02T03:00:03.016Z,101910.09
2023-06-02T03:02:29.991Z,101918.09
2023-06-02T03:04:57.618Z,101910.94
2023-06-02T03:07:25.902Z,101912.59
2023-06-02T03:09:53.163Z,101911.75
2023-06-02T03:12:20.285Z,101909.09
2023-06-02T03:14:47.187Z,101916.72
2023-06-02T03:17:14.710Z,101914.22
2023-06-02T03:19:41.805Z,101913.41
2023-06-02T03:22:09.093Z,101917.09
2023-06-02T03:24:37.421Z,101917.09
2023-06-02T03:27:04.840Z,101920.75
2023-06-02T03:29:31.821Z,101931.81
2023-06-02T03:31:59.980Z,101923.19
2023-06-02T03:34:27.031Z,101923.56
2023-06-02T03:36:54.014Z,101928.50
2023-06-02T03:39:20.972Z,101921.16
2023-06-02T03:41:49.219Z,101930.16
2023-06-02T03:44:16.212Z,101930.16
2023-06-02T03:46:43.210Z,101936.09
2023-06-02T03:49:10.175Z,101937.38
2023-06-02T03:51:37.825Z,101927.78
2023-06-02T03:54:04.943Z,101932.75
2023-06-02T03:56:31.912Z,101935.19
2023-06-02T03:59:00.288Z,101929.25
2023-06-02T04:01:27.402Z,101937.22
2023-06-02T04:03:54.713Z,101938.53
2023-06-02T04:06:22.297Z,101941.41
2023-06-02T04:08:49.247Z,101935.69
2023-06-02T04:11:16.406Z,101935.31
2023-06-02T04:13:43.343Z,101933.28
2023-06-02T04:16:11.616Z,101934.28
2023-06-02T04:18:40.190Z,101930.00
2023-06-02T04:21:07.414Z,101935.31
2023-06-02T04:23:34.366Z,101938.38
2023-06-02T04:26:01.760Z,101939.41
2023-06-02T04:28:30.073Z,101946.34
2023-06-02T04:31:00.440Z,101945.97
2023-06-02T04:33:29.274Z,101940.28
2023-06-02T04:35:57.263Z,101948.91
2023-06-02T04:38:24.489Z,101944.81
2023-06-02T04:40:52.145Z,101948.94
2023-06-02T04:43:19.911Z,101953.06
2023-06-02T04:45:48.171Z,101956.34
2023-06-02T04:48:15.333Z,101954.31
2023-06-02T04:50:43.661Z,101958.44
2023-06-02T04:53:10.668Z,101965.00
2023-06-02T04:55:37.662Z,101966.28
2023-06-02T04:58:05.391Z,101964.69
2023-06-02T05:00:32.354Z,101970.00
2023-06-02T05:02:59.348Z,101972.03
2023-06-02T05:05:26.431Z,101969.22
2023-06-02T05:07:54.831Z,101974.34
2023-06-02T05:10:21.784Z,101962.66
2023-06-02T05:12:49.135Z,101972.91
2023-06-02T05:15:17.595Z,101967.22
2023-06-02T05:17:44.891Z,101976.66
2023-06-02T05:20:12.640Z,101980.78
2023-06-02T05:22:40.083Z,101976.91
2023-06-02T05:25:11.546Z,101976.31
2023-06-02T05:27:39.131Z,101980.09
2023-06-02T05:30:08.172Z,101969.84
2023-06-02T05:32:35.315Z,101973.13
2023-06-02T05:35:02.374Z,101973.13
2023-06-02T05:37:29.356Z,101974.78
2023-06-02T05:39:56.304Z,101981.75
2023-06-02T05:42:26.225Z,101985.69
2023-06-02T05:44:53.229Z,101976.88
2023-06-02T05:47:20.318Z,101976.75
2023-06-02T05:49:47.518Z,101974.53
2023-06-02T05:52:14.550Z,101974.19
2023-06-02T05:54:41.527Z,101986.56
2023-06-02T05:57:08.537Z,101989.91
2023-06-02T05:59:36.818Z,101979.28
2023-06-02T06:02:04.223Z,101994.09
2023-06-02T06:04:31.277Z,101996.59
2023-06-02T06:06:59.717Z,101990.84
2023-06-02T06:09:26.626Z,101996.19
2023-06-02T06:11:53.701Z,101999.91
2023-06-02T06:14:20.890Z,101993.78
2023-06-02T06:16:49.189Z,102006.91
2023-06-02T06:19:16.359Z,102006.09
2023-06-02T06:21:43.351Z,101997.06
2023-06-02T06:24:10.414Z,102004.25
2023-06-02T06:26:37.466Z,101997.88
2023-06-02T06:29:04.806Z,101995.22
2023-06-02T06:31:33.453Z,101994.59
2023-06-02T06:34:01.970Z,101992.13
2023-06-02T06:36:29.051Z,101998.69
2023-06-02T06:38:56.642Z,101996.66
2023-06-02T06:41:24.012Z,102002.00
2023-06-02T06:43:51.073Z,101999.13
2023-06-02T06:46:18.039Z,102010.03
2023-06-02T06:48:45.272Z,102015.75
2023-06-02T06:51:13.720Z,102011.25
2023-06-02T06:53:40.675Z,102008.56
2023-06-02T06:56:08.525Z,102013.03
2023-06-02T06:58:35.480Z,102007.03
2023-06-02T07:01:03.108Z,102004.75
2023-06-02T07:03:30.878Z,102008.00
2023-06-02T07:05:58.146Z,102018.31
2023-06-02T07:08:26.652Z,102012.44
2023-06-02T07:10:53.622Z,102013.00
2023-06-02T07:13:20.707Z,102009.69
2023-06-02T07:15:47.892Z,102019.00
2023-06-02T07:18:14.909Z,102014.09
2023-06-02T07:20:41.829Z,102012.44
2023-06-02T07:23:08.897Z,102018.59
2023-06-02T07:25:37.849Z,102018.34
2023-06-02T07:28:05.372Z,102024.69
2023-06-02T07:30:36.124Z,102026.75
2023-06-02T07:33:03.597Z,102026.66
2023-06-02T07:35:30.750Z,102029.44
2023-06-02T07:37:57.675Z,102023.59
2023-06-02T07:40:24.921Z,102030.50
2023-06-02T07:42:53.152Z,102020.53
2023-06-02T07:45:20.110Z,102023.72
2023-06-02T07:47:47.947Z,102017.03
2023-06-02T07:50:15.366Z,102018.75
2023-06-02T07:52:42.782Z,102019.78
2023-06-02T07:55:10.249Z,102026.34
2023-06-02T07:57:37.360Z,102017.88
2023-06-02T08:00:18.959Z,102015.72
2023-06-02T08:02:50.470Z,102012.50
2023-06-02T08:05:18.681Z,102005.63
2023-06-02T08:07:46.655Z,102019.13
2023-06-02T08:10:13.767Z,102024.41
2023-06-02T08:12:40.857Z,102017.94
2023-06-02T08:15:09.348Z,102021.41
2023-06-02T08:17:37.838Z,102015.66
2023-06-02T08:20:07.777Z,102014.31
2023-06-02T08:22:35.203Z,102020.59
2023-06-02T08:25:04.001Z,102016.66
2023-06-02T08:27:31.188Z,102017.34
2023-06-02T08:29:58.549Z,102016.75
2023-06-02T08:32:27.161Z,102018.03
2023-06-02T08:35:02.389Z,102010.31
2023-06-02T08:37:32.964Z,102017.81
2023-06-02T08:40:00.412Z,102012.59
2023-06-02T08:42:27.994Z,102020.91
2023-06-02T08:44:55.091Z,102029.50
2023-06-02T08:47:30.054Z,102020.59
2023-06-02T08:50:03.133Z,102024.97
2023-06-02T08:52:35.448Z,102028.94
2023-06-02T08:55:04.940Z,102023.50
2023-06-02T08:57:31.992Z,102028.53
2023-06-02T08:59:59.121Z,102020.75
2023-06-02T09:02:26.227Z,102020.09
2023-06-02T09:04:53.337Z,102021.81
2023-06-02T09:07:22.183Z,102019.28
2023-06-02T09:09:52.109Z,102021.13
2023-06-02T09:12:20.205Z,102018.53
2023-06-02T09:14:49.075Z,102023.94
2023-06-02T09:17:28.055Z,102025.78
2023-06-02T09:19:58.799Z,102019.84
2023-06-02T09:22:27.187Z,102020.00
2023-06-02T09:24:55.337Z,102026.41
2023-06-02T09:27:22.477Z,102027.88
2023-06-02T09:29:50.750Z,102031.16
2023-06-02T09:32:19.915Z,102032.22
2023-06-02T09:34:47.083Z,102034.16
2023-06-02T09:37:16.873Z,102042.31
2023-06-02T09:39:47.400Z,102037.28
2023-06-02T09:42:16.065Z,102046.56
2023-06-02T09:45:04.644Z,102034.97
2023-06-02T09:47:39.537Z,102052.91
2023-06-02T09:50:08.291Z,102048.31
2023-06-02T09:52:38.078Z,102052.25
2023-06-02T09:55:09.182Z,102052.78
2023-06-02T09:57:37.564Z,102051.38
2023-06-02T10:00:07.979Z,102052.81
2023-06-02T10:02:36.420Z,102052.63
2023-06-02T10:05:05.605Z,102049.16
2023-06-02T10:07:53.117Z,102047.81
2023-06-02T10:10:39.284Z,102051.63
2023-06-02T10:13:34.436Z,102045.94
2023-06-02T10:16:25.055Z,102061.22
2023-06-02T10:19:28.893Z,102050.59
2023-06-02T10:22:13.024Z,102057.34
2023-06-02T10:24:56.047Z,102051.28
2023-06-02T10:27:31.285Z,102053.19
2023-06-02T10:29:59.330Z,102058.56
2023-06-02T10:32:30.007Z,102059.56
2023-06-02T10:34:58.678Z,102058.56
2023-06-02T10:37:25.904Z,102061.53
2023-06-02T10:39:55.142Z,102064.50
2023-06-02T10:42:25.035Z,102060.56
2023-06-02T10:45:33.039Z,102066.50
2023-06-02T10:47:59.992Z,102063.59
2023-06-02T10:50:54.715Z,102066.09
2023-06-02T10:53:21.709Z,102063.47
2023-06-02T10:55:49.597Z,102059.38
2023-06-02T10:58:16.795Z,102060.88
2023-06-02T11:00:48.126Z,102060.81
2023-06-02T11:03:34.526Z,102059.56
2023-06-02T11:06:21.479Z,102070.66
2023-06-02T11:08:53.198Z,102065.56
2023-06-02T11:11:54.113Z,102066.94
2023-06-02T11:14:22.190Z,102064.25
2023-06-02T11:17:31.418Z,102066.50
2023-06-02T11:19:59.077Z,102064.28
2023-06-02T11:22:26.933Z,102069.38
2023-06-02T11:24:54.538Z,102069.84
2023-06-02T11:27:37.615Z,102068.28
2023-06-02T11:30:11.457Z,102074.69
2023-06-02T11:32:39.998Z,102070.22
2023-06-02T11:35:10.366Z,102074.63
2023-06-02T11:37:41.351Z,102067.94
2023-06-02T11:40:14.446Z,102075.44
2023-06-02T11:42:43.990Z,102070.81
2023-06-02T11:45:23.115Z,102078.03
2023-06-02T11:48:00.185Z,102077.75
2023-06-02T11:50:27.476Z,102082.16
2023-06-02T11:52:54.742Z,102080.06
2023-06-02T11:55:26.828Z,102072.97
2023-06-02T11:57:53.936Z,102083.94
2023-06-02T12:00:21.566Z,102076.38
2023-06-02T12:02:52.890Z,102081.69
2023-06-02T12:05:32.684Z,102081.75
2023-06-02T12:08:09.453Z,102075.44
2023-06-02T12:10:37.264Z,102069.94
2023-06-02T12:13:04.235Z,102073.56
2023-06-02T12:15:37.243Z,102077.34
2023-06-02T12:18:06.183Z,102078.38
2023-06-02T12:20:42.545Z,102078.25
2023-06-02T12:23:11.299Z,102081.44
2023-06-02T12:25:39.207Z,102087.06
2023-06-02T12:28:12.342Z,102088.25
2023-06-02T12:30:40.356Z,102084.84
2023-06-02T12:33:09.853Z,102081.75
2023-06-02T12:35:37.887Z,102075.91
2023-06-02T12:38:07.761Z,102077.56
2023-06-02T12:40:35.578Z,102077.56
2023-06-02T12:43:02.623Z,102078.16
2023-06-02T12:45:29.845Z,102085.66
2023-06-02T12:47:57.261Z,102078.72
2023-06-02T12:50:27.318Z,102082.22
2023-06-02T12:52:54.400Z,102081.25
2023-06-02T12:55:22.871Z,102093.78
2023-06-02T12:57:51.372Z,102084.63
2023-06-02T13:00:18.910Z,102078.66
2023-06-02T13:02:46.149Z,102078.44
2023-06-02T13:05:13.636Z,102080.31
2023-06-02T13:07:42.250Z,102080.03
2023-06-02T13:10:11.971Z,102074.28
2023-06-02T13:12:41.074Z,102072.59
2023-06-02T13:15:09.501Z,102079.00
2023-06-02T13:17:36.759Z,102088.19
2023-06-02T13:20:04.452Z,102069.75
2023-06-02T13:22:31.727Z,102091.91
2023-06-02T13:24:59.708Z,102088.06
2023-06-02T13:27:38.307Z,102089.69
2023-06-02T13:30:14.218Z,102082.16
2023-06-02T13:32:41.240Z,102086.03
2023-06-02T13:35:09.980Z,102084.94
2023-06-02T13:37:38.059Z,102091.50
2023-06-02T13:40:07.366Z,102088.56
2023-06-02T13:42:34.530Z,102089.38
2023-06-02T13:45:01.467Z,102089.50
2023-06-02T13:47:29.916Z,102089.50
2023-06-02T13:49:56.902Z,102082.81
2023-06-02T13:52:23.935Z,102083.03
2023-06-02T13:54:50.974Z,102092.78
2023-06-02T13:57:18.029Z,102095.06
2023-06-02T13:59:45.122Z,102096.22
2023-06-02T14:02:12.296Z,102096.31
2023-06-02T14:04:42.802Z,102096.63
2023-06-02T14:07:11.716Z,102097.94
2023-06-02T14:09:38.866Z,102100.06
2023-06-02T14:12:07.134Z,102092.88
2023-06-02T14:14:34.213Z,102099.66
2023-06-02T14:17:01.325Z,102092.66
2023-06-02T14:19:28.344Z,102097.56
2023-06-02T14:21:57.031Z,102100.31
2023-06-02T14:24:24.136Z,102094.03
2023-06-02T14:26:51.562Z,102087.91
2023-06-02T14:29:18.614Z,102082.91
2023-06-02T14:31:45.707Z,102084.75
2023-06-02T14:34:12.827Z,102079.84
2023-06-02T14:36:39.997Z,102081.72
2023-06-02T14:39:08.378Z,102085.63
2023-06-02T14:41:35.450Z,102089.81
2023-06-02T14:44:03.481Z,102097.91
2023-06-02T14:46:30.854Z,102095.66
2023-06-02T14:48:58.065Z,102094.31
2023-06-02T14:51:25.076Z,102098.41
2023-06-02T14:53:52.359Z,102107.78
2023-06-02T14:56:21.622Z,102117.16
2023-06-02T14:58:53.619Z,102114.66
2023-06-02T15:01:26.511Z,102101.47
2023-06-02T15:03:53.644Z,102111.66
2023-06-02T15:06:39.143Z,102103.56
2023-06-02T15:09:06.341Z,102110.50
2023-06-02T15:11:35.693Z,102099.13
2023-06-02T15:14:02.709Z,102099.72
2023-06-02T15:16:29.724Z,102102.97
2023-06-02T15:18:58.664Z,102097.94
2023-06-02T15:21:26.256Z,102106.50
2023-06-02T15:23:53.853Z,102102.97
2023-06-02T15:26:22.058Z,102109.34
2023-06-02T15:28:50.392Z,102108.63
2023-06-02T15:31:17.556Z,102094.59
2023-06-02T15:33:46.159Z,102102.41
2023-06-02T15:36:14.050Z,102101.50
2023-06-02T15:38:41.278Z,102103.19
2023-06-02T15:41:08.268Z,102097.56
2023-06-02T15:43:35.207Z,102088.78
2023-06-02T15:46:04.237Z,102092.06
2023-06-02T15:48:31.484Z,102084.19
2023-06-02T15:50:58.636Z,102094.47
2023-06-02T15:53:25.666Z,102084.59
2023-06-02T15:55:52.605Z,102086.19
2023-06-02T15:58:19.678Z,102083.72
2023-06-02T16:00:46.711Z,102084.34
2023-06-02T16:03:15.108Z,102079.91
2023-06-02T16:05:42.466Z,102067.06
2023-06-02T16:08:09.390Z,102081.06
2023-06-02T16:10:36.410Z,102086.00
2023-06-02T16:13:03.497Z,102083.78
2023-06-02T16:15:31.573Z,102083.03
2023-06-02T16:18:02.035Z,102074.47
2023-06-02T16:20:31.693Z,102081.25
2023-06-02T16:22:58.749Z,102079.34
2023-06-02T16:25:25.833Z,102082.09
2023-06-02T16:27:53.034Z,102081.97
2023-06-02T16:30:21.598Z,102077.75
2023-06-02T16:32:50.906Z,102077.38
2023-06-02T16:35:18.044Z,102080.97
2023-06-02T16:37:46.890Z,102078.09
2023-06-02T16:40:13.979Z,102076.06
2023-06-02T16:42:44.995Z,102078.28
2023-06-02T16:45:13.486Z,102080.91
2023-06-02T16:47:40.531Z,102080.56
2023-06-02T16:50:08.558Z,102071.53
2023-06-02T16:52:35.550Z,102078.88
2023-06-02T16:55:04.701Z,102079.03
2023-06-02T16:57:31.607Z,102072.50
2023-06-02T16:59:58.519Z,102080.72
2023-06-02T17:02:25.662Z,102084.41
2023-06-02T17:04:52.594Z,102078.34
2023-06-02T17:07:19.578Z,102086.00
2023-06-02T17:09:46.490Z,102090.69
2023-06-02T17:12:14.841Z,102088.00
2023-06-02T17:14:42.795Z,102083.72
2023-06-02T17:17:10.514Z,102086.31
2023-06-02T17:19:37.978Z,102084.81
2023-06-02T17:22:07.256Z,102088.91
2023-06-02T17:24:34.353Z,102092.44
2023-06-02T17:27:02.062Z,102090.13
2023-06-02T17:29:30.385Z,102082.59
2023-06-02T17:31:57.537Z,102091.50
2023-06-02T17:34:25.145Z,102090.31
2023-06-02T17:36:54.732Z,102088.91
2023-06-02T17:39:21.881Z,102084.59
2023-06-02T17:41:48.993Z,102084.22
2023-06-02T17:44:16.065Z,102094.16
2023-06-02T17:46:44.371Z,102095.81
2023-06-02T17:49:12.442Z,102098.50
2023-06-02T17:51:39.456Z,102093.56
2023-06-02T17:54:06.550Z,102102.16
2023-06-02T17:56:33.466Z,102105.50
2023-06-02T17:59:01.569Z,102105.50
2023-06-02T18:01:28.663Z,102110.09
2023-06-02T18:03:57.315Z,102103.06
2023-06-02T18:06:24.318Z,102106.91
2023-06-02T18:08:51.375Z,102107.34
2023-06-02T18:11:18.306Z,102114.50
2023-06-02T18:13:45.683Z,102120.34
2023-06-02T18:16:13.497Z,102119.16
2023-06-02T18:18:40.477Z,102123.72
2023-06-02T18:21:08.814Z,102115.91
2023-06-02T18:23:35.891Z,102120.91
2023-06-02T18:26:02.956Z,102126.34
2023-06-02T18:28:29.910Z,102133.13
2023-06-02T18:30:56.908Z,102123.72
2023-06-02T18:33:23.865Z,102130.00
2023-06-02T18:35:51.091Z,102127.63
2023-06-02T18:38:19.440Z,102134.34
2023-06-02T18:40:46.672Z,102135.28
2023-06-02T18:43:13.658Z,102137.00
2023-06-02T18:45:40.621Z,102138.09
2023-06-02T18:48:09.060Z,102145.00
2023-06-02T18:50:36.212Z,102146.25
2023-06-02T18:53:03.172Z,102145.47
2023-06-02T18:55:31.450Z,102150.94
2023-06-02T18:57:58.460Z,102160.47
2023-06-02T19:00:25.450Z,102157.66
2023-06-02T19:02:52.512Z,102155.63
2023-06-02T19:05:19.615Z,102158.94
2023-06-02T19:07:46.562Z,102166.25
2023-06-02T19:10:13.513Z,102165.28
2023-06-02T19:12:42.257Z,102172.38
2023-06-02T19:15:09.630Z,102160.44
2023-06-02T19:17:36.943Z,102177.78
2023-06-02T19:20:07.190Z,102168.75
2023-06-02T19:22:38.612Z,102170.00
2023-06-02T19:25:07.532Z,102167.97
2023-06-02T19:27:35.042Z,102175.44
2023-06-02T19:30:04.046Z,102184.13
2023-06-02T19:32:31.325Z,102177.75
2023-06-02T19:34:58.344Z,102188.91
2023-06-02T19:37:25.365Z,102185.03
2023-06-02T19:39:52.293Z,102194.56
2023-06-02T19:42:19.289Z,102196.84
2023-06-02T19:44:48.449Z,102199.34
2023-06-02T19:47:16.902Z,102204.09
2023-06-02T19:49:44.100Z,102202.06
2023-06-02T19:52:11.084Z,102213.22
2023-06-02T19:54:38.288Z,102209.94
2023-06-02T19:57:06.625Z,102213.69
2023-06-02T19:59:34.954Z,102211.41
2023-06-02T20:02:01.962Z,102216.19
2023-06-02T20:04:30.407Z,102209.63
2023-06-02T20:07:00.338Z,102215.41
2023-06-02T20:09:27.405Z,102210.88
2023-06-02T20:11:56.343Z,102215.03
2023-06-02T20:14:23.493Z,102204.72
2023-06-02T20:16:50.671Z,102208.88
2023-06-02T20:19:18.110Z,102214.66
2023-06-02T20:21:46.418Z,102214.25
2023-06-02T20:24:13.340Z,102218.34
2023-06-02T20:26:41.208Z,102222.50
2023-06-02T20:29:08.257Z,102221.50
2023-06-02T20:31:35.416Z,102222.13
2023-06-02T20:34:02.924Z,102219.28
2023-06-02T20:36:30.016Z,102219.06
2023-06-02T20:38:58.596Z,102226.69
2023-06-02T20:41:25.942Z,102235.38
2023-06-02T20:43:52.944Z,102237.66
2023-06-02T20:46:20.003Z,102236.41
2023-06-02T20:48:46.959Z,102232.50
2023-06-02T20:51:13.936Z,102239.94
2023-06-02T20:53:40.994Z,102240.34
2023-06-02T20:56:09.323Z,102239.75
2023-06-02T20:58:36.380Z,102241.19
2023-06-02T21:01:03.831Z,102239.94
2023-06-02T21:03:30.977Z,102239.56
2023-06-02T21:05:57.983Z,102236.66
2023-06-02T21:08:24.959Z,102234.63
2023-06-02T21:10:51.875Z,102237.09
2023-06-02T21:13:20.167Z,102243.84
2023-06-02T21:15:47.112Z,102241.59
2023-06-02T21:18:14.185Z,102241.38
2023-06-02T21:20:41.127Z,102248.97
2023-06-02T21:23:08.150Z,102252.91
2023-06-02T21:25:35.098Z,102253.31
2023-06-02T21:28:02.001Z,102264.22
2023-06-02T21:30:30.703Z,102264.81
2023-06-02T21:32:57.800Z,102260.91
2023-06-02T21:35:24.753Z,102259.69
2023-06-02T21:37:51.766Z,102266.44
2023-06-02T21:40:18.686Z,102268.72
2023-06-02T21:42:46.014Z,102261.31
2023-06-02T21:45:13.353Z,102265.44
2023-06-02T21:47:41.976Z,102260.06
2023-06-02T21:50:10.381Z,102265.22
2023-06-02T21:52:37.398Z,102267.06
2023-06-02T21:55:05.433Z,102274.47
2023-06-02T21:57:32.511Z,102271.56
2023-06-02T21:59:59.682Z,102275.88
2023-06-02T22:02:28.558Z,102278.97
2023-06-02T22:04:56.985Z,102273.19
2023-06-02T22:07:23.894Z,102277.28
2023-06-02T22:09:51.582Z,102280.34
2023-06-02T22:12:18.539Z,102278.06
2023-06-02T22:14:45.450Z,102274.78
2023-06-02T22:17:12.392Z,102279.88
2023-06-02T22:19:39.339Z,102280.47
2023-06-02T22:22:08.114Z,102278.38
2023-06-02T22:24:37.418Z,102275.47
2023-06-02T22:27:05.048Z,102281.63
2023-06-02T22:29:31.962Z,102273.38
2023-06-02T22:31:58.952Z,102282.84
2023-06-02T22:34:26.103Z,102283.22
2023-06-02T22:36:53.141Z,102279.31
2023-06-02T22:39:21.455Z,102275.34
2023-06-02T22:41:49.770Z,102269.59
2023-06-02T22:44:16.792Z,102278.19
2023-06-02T22:46:43.754Z,102278.59
2023-06-02T22:49:11.105Z,102283.31
2023-06-02T22:51:39.396Z,102281.84
2023-06-02T22:54:06.378Z,102274.22
2023-06-02T22:56:34.628Z,102281.41
2023-06-02T22:59:01.855Z,102280.16
2023-06-02T23:01:29.330Z,102291.84
2023-06-02T23:03:56.365Z,102291.22
2023-06-02T23:06:23.891Z,102294.94
2023-06-02T23:08:50.874Z,102290.59
2023-06-02T23:11:18.498Z,102297.78
2023-06-02T23:13:46.813Z,102292.84
2023-06-02T23:16:13.826Z,102292.38
2023-06-02T23:18:40.760Z,102296.47
2023-06-02T23:21:08.026Z,102295.84
2023-06-02T23:23:35.751Z,102304.88
2023-06-02T23:26:03.179Z,102304.19
2023-06-02T23:28:30.254Z,102300.91
2023-06-02T23:30:58.537Z,102302.13
2023-06-02T23:33:25.477Z,102305.00
2023-06-02T23:35:52.444Z,102299.00
2023-06-02T23:38:19.394Z,102296.31
2023-06-02T23:40:46.365Z,102307.00
2023-06-02T23:43:13.364Z,102298.38
2023-06-02T23:45:40.526Z,102298.75
2023-06-02T23:48:08.820Z,102298.13
2023-06-02T23:50:35.779Z,102303.88
2023-06-02T23:53:03.401Z,102297.84
2023-06-02T23:55:32.055Z,102307.28
2023-06-02T23:57:59.038Z,102309.06
